トロンハイム の空港の天気 - METARとTAF

Trondheim / Vaernes ( ENVA / TRD ) - ノルウェー ヌール・トロンデラーグ県、Stjordal
飛行場実況気象(Metar)
観測時間01/21 18:50 CET (01/21 17:50 UTC)
風向・風速東 3m/s
視程10km以上
天気現象
なし
気温-10℃
湿度79%
気圧1013hPa
METARENVA 211750Z 09005KT CAVOK M10/M13 Q1013 RMK WIND 670FT 14004KT
過去の天気等 Google飛行場航空写真 Wunderground天気予報

過去48時間のMETAR

飛行場予報(TAF)
発表時間: -
22日13時 CET ~ 22日19時 CET に 確率 30% で一時的に
風向・風速南 8m/s 瞬間風速 13m/s
TAF ENVA 2118/2218 12010KT CAVOK
PROB30 TEMPO 2212/2218 17015G25KT